createdAt,value
2022-10-07T00:02:15.171Z,2.70
2022-10-07T00:06:13.323Z,2.42
2022-10-07T00:09:55.151Z,2.00
2022-10-07T00:13:41.272Z,1.95
2022-10-07T00:17:23.089Z,1.98
2022-10-07T00:21:06.890Z,2.25
2022-10-07T00:24:48.737Z,2.10
2022-10-07T00:28:31.108Z,2.22
2022-10-07T00:32:12.989Z,2.08
2022-10-07T00:35:54.843Z,1.83
2022-10-07T00:39:36.640Z,1.55
2022-10-07T00:43:20.206Z,2.42
2022-10-07T00:47:13.516Z,1.90
2022-10-07T00:50:57.721Z,1.98
2022-10-07T00:54:40.115Z,2.10
2022-10-07T00:58:21.987Z,2.10
2022-10-07T01:02:04.692Z,2.10
2022-10-07T01:05:46.640Z,2.25
2022-10-07T01:09:28.719Z,2.05
2022-10-07T01:13:19.555Z,2.25
2022-10-07T01:17:15.059Z,1.83
2022-10-07T01:21:20.327Z,2.53
2022-10-07T01:25:23.859Z,1.80
2022-10-07T01:29:28.890Z,2.78
2022-10-07T01:33:16.459Z,2.15
2022-10-07T01:37:00.559Z,2.70
2022-10-07T01:40:51.570Z,2.60
2022-10-07T01:44:33.714Z,1.77
2022-10-07T01:48:15.916Z,2.20
2022-10-07T01:52:29.629Z,1.98
2022-10-07T01:56:30.088Z,2.88
2022-10-07T02:00:13.236Z,2.28
2022-10-07T02:03:55.077Z,2.58
2022-10-07T02:07:43.130Z,2.47
2022-10-07T02:11:33.334Z,2.03
2022-10-07T02:15:20.967Z,2.13
2022-10-07T02:19:07.816Z,1.70
2022-10-07T02:22:51.995Z,1.83
2022-10-07T02:26:35.691Z,2.33
2022-10-07T02:30:20.262Z,2.38
2022-10-07T02:34:04.529Z,2.97
2022-10-07T02:37:49.578Z,2.42
2022-10-07T02:41:35.502Z,2.15
2022-10-07T02:45:29.394Z,1.95
2022-10-07T02:49:17.162Z,2.22
2022-10-07T02:53:01.846Z,2.28
2022-10-07T02:56:45.845Z,2.30
2022-10-07T03:00:31.176Z,1.77
2022-10-07T03:04:13.735Z,1.55
2022-10-07T03:07:59.349Z,2.20
2022-10-07T03:11:41.204Z,1.13
2022-10-07T03:15:23.887Z,2.33
2022-10-07T03:19:05.738Z,1.48
2022-10-07T03:22:47.583Z,1.55
2022-10-07T03:26:29.953Z,1.50
2022-10-07T03:30:12.199Z,1.95
2022-10-07T03:33:55.629Z,1.92
2022-10-07T03:37:37.427Z,1.50
2022-10-07T03:41:19.564Z,2.10
2022-10-07T03:45:01.467Z,1.63
2022-10-07T03:48:43.288Z,1.83
2022-10-07T03:52:25.149Z,1.95
2022-10-07T03:56:08.189Z,2.30
2022-10-07T03:59:50.239Z,1.70
2022-10-07T04:03:32.146Z,1.80
2022-10-07T04:07:14.024Z,1.55
2022-10-07T04:10:57.263Z,1.90
2022-10-07T04:14:39.226Z,1.70
2022-10-07T04:18:22.038Z,1.55
2022-10-07T04:22:08.464Z,2.00
2022-10-07T04:25:50.826Z,1.98
2022-10-07T04:29:36.749Z,1.98
2022-10-07T04:33:22.562Z,2.42
2022-10-07T04:37:05.567Z,1.70
2022-10-07T04:40:50.121Z,2.03
2022-10-07T04:44:31.948Z,1.98
2022-10-07T04:48:13.923Z,2.17
2022-10-07T04:51:56.807Z,1.80
2022-10-07T04:55:43.678Z,1.20
2022-10-07T04:59:29.183Z,1.35
2022-10-07T05:03:13.861Z,1.47
2022-10-07T05:06:55.653Z,1.90
2022-10-07T05:10:42.231Z,1.50
2022-10-07T05:14:24.096Z,1.83
2022-10-07T05:18:07.183Z,1.52
2022-10-07T05:21:49.055Z,1.38
2022-10-07T05:25:30.899Z,2.53
2022-10-07T05:29:13.112Z,2.03
2022-10-07T05:32:55.814Z,1.85
2022-10-07T05:36:38.853Z,2.33
2022-10-07T05:40:21.617Z,1.67
2022-10-07T05:44:03.484Z,1.55
2022-10-07T05:47:47.674Z,1.63
2022-10-07T05:51:29.627Z,1.88
2022-10-07T05:55:12.128Z,1.70
2022-10-07T05:58:54.287Z,1.45
2022-10-07T06:02:37.485Z,1.95
2022-10-07T06:06:20.001Z,1.40
2022-10-07T06:10:20.295Z,1.80
2022-10-07T06:14:02.375Z,2.85
2022-10-07T06:17:45.724Z,1.75
2022-10-07T06:21:28.445Z,1.65
2022-10-07T06:25:10.628Z,2.15
2022-10-07T06:28:52.519Z,2.50
2022-10-07T06:32:34.408Z,2.45
2022-10-07T06:36:16.657Z,1.50
2022-10-07T06:39:59.821Z,2.40
2022-10-07T06:43:42.166Z,1.77
2022-10-07T06:47:24.134Z,1.65
2022-10-07T06:51:06.238Z,2.03
2022-10-07T06:54:48.064Z,2.05
2022-10-07T06:58:30.327Z,1.65
2022-10-07T07:02:12.216Z,3.60
2022-10-07T07:05:55.150Z,6.72
2022-10-07T07:09:37.297Z,4.38
2022-10-07T07:13:19.271Z,4.20
2022-10-07T07:17:01.196Z,3.15
2022-10-07T07:20:43.074Z,4.30
2022-10-07T07:24:24.927Z,3.78
2022-10-07T07:28:08.124Z,4.38
2022-10-07T07:31:51.037Z,2.55
2022-10-07T07:35:38.517Z,2.83
2022-10-07T07:39:21.009Z,2.55
2022-10-07T07:43:03.131Z,2.22
2022-10-07T07:46:48.607Z,2.80
2022-10-07T07:50:30.631Z,2.22
2022-10-07T07:54:13.261Z,1.50
2022-10-07T07:57:55.332Z,2.22
2022-10-07T08:01:37.407Z,1.95
2022-10-07T08:05:23.726Z,1.98
2022-10-07T08:09:06.477Z,1.88
2022-10-07T08:12:48.247Z,2.05
2022-10-07T08:16:30.301Z,1.88
2022-10-07T08:20:12.098Z,1.33
2022-10-07T08:23:58.574Z,1.95
2022-10-07T08:27:40.380Z,2.58
2022-10-07T08:31:22.938Z,2.35
2022-10-07T08:35:05.270Z,1.90
2022-10-07T08:38:50.533Z,2.00
2022-10-07T08:42:39.115Z,1.95
2022-10-07T08:46:29.234Z,1.45
2022-10-07T08:50:22.392Z,1.15
2022-10-07T08:54:04.405Z,1.05
2022-10-07T08:58:31.027Z,1.55
2022-10-07T09:02:46.482Z,1.63
2022-10-07T09:06:33.127Z,1.23
2022-10-07T09:10:26.800Z,1.95
2022-10-07T09:14:53.602Z,1.27
2022-10-07T09:18:41.319Z,1.17
2022-10-07T09:22:35.030Z,0.93
2022-10-07T09:26:16.876Z,1.67
2022-10-07T09:29:58.716Z,1.52
2022-10-07T09:33:44.159Z,1.65
2022-10-07T09:37:27.769Z,1.88
2022-10-07T09:41:20.927Z,1.42
2022-10-07T09:45:23.895Z,1.83
2022-10-07T09:49:07.461Z,1.50
2022-10-07T09:52:56.090Z,1.17
2022-10-07T09:56:43.901Z,1.80
2022-10-07T10:00:27.375Z,0.70
2022-10-07T10:04:23.033Z,1.38
2022-10-07T10:08:25.803Z,1.33
2022-10-07T10:12:15.131Z,1.58
2022-10-07T10:15:57.477Z,1.17
2022-10-07T10:19:39.362Z,1.13
2022-10-07T10:23:35.783Z,1.10
2022-10-07T10:27:34.446Z,0.88
2022-10-07T10:31:37.172Z,0.90
2022-10-07T10:35:28.905Z,0.80
2022-10-07T10:39:25.707Z,1.30
2022-10-07T10:43:26.461Z,1.05
2022-10-07T10:47:31.374Z,1.10
2022-10-07T10:51:34.263Z,0.68
2022-10-07T10:55:21.820Z,1.20
2022-10-07T10:59:19.639Z,1.10
2022-10-07T11:03:24.596Z,0.80
2022-10-07T11:07:21.392Z,1.23
2022-10-07T11:11:15.933Z,0.82
2022-10-07T11:15:20.174Z,0.90
2022-10-07T11:19:16.802Z,0.70
2022-10-07T11:23:12.185Z,0.63
2022-10-07T11:26:58.032Z,0.50
2022-10-07T11:31:04.324Z,1.17
2022-10-07T11:35:11.890Z,0.80
2022-10-07T11:38:53.839Z,0.63
2022-10-07T11:42:43.717Z,1.13
2022-10-07T11:46:43.175Z,1.30
2022-10-07T11:50:55.903Z,0.55
2022-10-07T11:54:50.813Z,0.70
2022-10-07T11:58:37.553Z,1.00
2022-10-07T12:02:28.471Z,0.80
2022-10-07T12:06:13.426Z,1.20
2022-10-07T12:10:18.254Z,0.70
2022-10-07T12:14:30.040Z,0.70
2022-10-07T12:18:12.264Z,0.85
2022-10-07T12:22:00.085Z,0.90
2022-10-07T12:25:44.530Z,0.75
2022-10-07T12:29:48.602Z,0.65
2022-10-07T12:33:45.481Z,0.52
2022-10-07T12:37:39.454Z,1.00
2022-10-07T12:41:30.817Z,1.10
2022-10-07T12:45:14.209Z,0.77
2022-10-07T12:49:24.503Z,0.73
2022-10-07T12:53:07.228Z,1.20
2022-10-07T12:56:49.619Z,0.70
2022-10-07T13:00:32.097Z,0.95
2022-10-07T13:04:35.412Z,1.27
2022-10-07T13:08:42.303Z,0.75
2022-10-07T13:12:46.835Z,0.90
2022-10-07T13:16:53.615Z,0.45
2022-10-07T13:20:56.775Z,0.90
2022-10-07T13:24:47.715Z,1.25
2022-10-07T13:28:43.560Z,0.90
2022-10-07T13:32:34.336Z,0.98
2022-10-07T13:36:19.168Z,1.10
2022-10-07T13:40:21.205Z,1.05
2022-10-07T13:44:05.639Z,0.63
2022-10-07T13:47:47.746Z,0.90
2022-10-07T13:51:34.632Z,0.98
2022-10-07T13:55:25.714Z,1.35
2022-10-07T13:59:16.018Z,0.65
2022-10-07T14:02:58.269Z,1.05
2022-10-07T14:06:51.486Z,1.02
2022-10-07T14:10:33.769Z,0.70
2022-10-07T14:14:21.609Z,1.13
2022-10-07T14:18:10.606Z,1.30
2022-10-07T14:21:52.601Z,1.10
2022-10-07T14:25:55.159Z,0.70
2022-10-07T14:29:37.983Z,0.77
2022-10-07T14:33:44.181Z,0.50
2022-10-07T14:37:31.555Z,1.02
2022-10-07T14:41:15.724Z,1.08
2022-10-07T14:44:57.927Z,1.15
2022-10-07T14:48:39.796Z,0.98
2022-10-07T14:52:31.615Z,0.60
2022-10-07T14:56:28.081Z,0.60
2022-10-07T15:00:23.611Z,0.40
2022-10-07T15:04:07.089Z,1.13
2022-10-07T15:07:50.272Z,0.80
2022-10-07T15:11:32.323Z,0.93
2022-10-07T15:15:15.139Z,1.23
2022-10-07T15:18:57.235Z,1.40
2022-10-07T15:22:39.126Z,1.10
2022-10-07T15:26:24.357Z,0.90
2022-10-07T15:30:07.363Z,1.05
2022-10-07T15:33:49.313Z,0.75
2022-10-07T15:37:32.365Z,0.63
2022-10-07T15:41:28.242Z,0.90
2022-10-07T15:45:11.284Z,1.58
2022-10-07T15:48:57.503Z,0.60
2022-10-07T15:52:39.312Z,0.60
2022-10-07T15:56:21.257Z,1.05
2022-10-07T16:00:05.045Z,0.98
2022-10-07T16:03:48.743Z,1.23
2022-10-07T16:07:30.958Z,1.05
2022-10-07T16:11:13.595Z,1.00
2022-10-07T16:14:56.154Z,1.05
2022-10-07T16:18:40.568Z,1.10
2022-10-07T16:22:22.355Z,0.70
2022-10-07T16:26:06.220Z,0.77
2022-10-07T16:30:06.725Z,0.80
2022-10-07T16:33:52.919Z,0.82
2022-10-07T16:37:34.781Z,1.00
2022-10-07T16:41:17.319Z,1.08
2022-10-07T16:44:59.152Z,1.10
2022-10-07T16:48:43.170Z,0.88
2022-10-07T16:52:25.588Z,1.77
2022-10-07T16:56:08.171Z,1.10
2022-10-07T16:59:53.273Z,0.80
2022-10-07T17:03:35.738Z,0.90
2022-10-07T17:07:17.696Z,1.30
2022-10-07T17:11:00.831Z,1.65
2022-10-07T17:14:43.394Z,0.98
2022-10-07T17:18:26.749Z,1.20
2022-10-07T17:22:09.637Z,1.02
2022-10-07T17:25:52.297Z,2.00
2022-10-07T17:29:35.962Z,1.40
2022-10-07T17:33:17.833Z,1.10
2022-10-07T17:37:01.039Z,1.20
2022-10-07T17:40:43.652Z,1.20
2022-10-07T17:44:25.756Z,1.20
2022-10-07T17:48:08.482Z,1.75
2022-10-07T17:51:50.305Z,1.55
2022-10-07T17:55:33.487Z,1.55
2022-10-07T17:59:15.835Z,2.08
2022-10-07T18:02:57.648Z,1.70
2022-10-07T18:06:39.979Z,1.38
2022-10-07T18:10:21.817Z,1.98
2022-10-07T18:14:26.678Z,1.95
2022-10-07T18:18:08.655Z,2.15
2022-10-07T18:21:50.874Z,2.35
2022-10-07T18:25:35.507Z,1.80
2022-10-07T18:29:18.527Z,2.10
2022-10-07T18:33:00.367Z,1.90
2022-10-07T18:36:42.205Z,2.33
2022-10-07T18:40:24.307Z,2.28
2022-10-07T18:44:07.503Z,2.97
2022-10-07T18:47:49.456Z,3.20
2022-10-07T18:51:31.366Z,3.40
2022-10-07T18:55:13.312Z,2.83
2022-10-07T18:58:55.116Z,2.92
2022-10-07T19:02:37.161Z,2.35
2022-10-07T19:06:21.473Z,4.22
2022-10-07T19:10:03.398Z,4.00
2022-10-07T19:13:48.469Z,4.18
2022-10-07T19:17:30.311Z,3.85
2022-10-07T19:21:12.741Z,4.15
2022-10-07T19:25:13.311Z,5.03
2022-10-07T19:28:56.054Z,5.53
2022-10-07T19:32:40.039Z,3.63
2022-10-07T19:36:23.190Z,3.42
2022-10-07T19:40:05.521Z,3.58
2022-10-07T19:43:49.086Z,3.58
2022-10-07T19:47:32.655Z,3.50
2022-10-07T19:51:20.295Z,4.38
2022-10-07T19:55:02.149Z,4.03
2022-10-07T19:58:48.866Z,3.28
2022-10-07T20:02:30.809Z,4.00
2022-10-07T20:06:13.061Z,4.05
2022-10-07T20:09:55.128Z,4.43
2022-10-07T20:13:37.932Z,4.63
2022-10-07T20:17:20.101Z,5.88
2022-10-07T20:21:15.996Z,4.50
2022-10-07T20:24:57.850Z,5.85
2022-10-07T20:28:40.479Z,5.85
2022-10-07T20:32:22.895Z,5.63
2022-10-07T20:36:05.595Z,4.70
2022-10-07T20:40:06.177Z,4.95
2022-10-07T20:43:50.579Z,4.13
2022-10-07T20:47:34.290Z,4.82
2022-10-07T20:51:17.068Z,3.90
2022-10-07T20:54:59.108Z,3.92
2022-10-07T20:58:40.953Z,3.83
2022-10-07T21:02:24.046Z,4.40
2022-10-07T21:06:06.498Z,3.63
2022-10-07T21:09:48.600Z,4.00
2022-10-07T21:13:31.679Z,3.72
2022-10-07T21:17:14.296Z,4.18
2022-10-07T21:20:57.165Z,3.63
2022-10-07T21:24:39.287Z,4.03
2022-10-07T21:28:21.340Z,3.67
2022-10-07T21:32:03.632Z,3.20
2022-10-07T21:35:45.536Z,3.38
2022-10-07T21:39:27.380Z,3.13
2022-10-07T21:43:09.266Z,3.00
2022-10-07T21:46:51.259Z,3.40
2022-10-07T21:50:33.065Z,3.80
2022-10-07T21:54:17.995Z,3.63
2022-10-07T21:57:59.769Z,3.45
2022-10-07T22:01:42.663Z,2.92
2022-10-07T22:05:24.655Z,3.33
2022-10-07T22:09:06.477Z,2.78
2022-10-07T22:12:49.010Z,2.78
2022-10-07T22:16:31.606Z,2.45
2022-10-07T22:20:13.426Z,2.70
2022-10-07T22:24:00.045Z,2.50
2022-10-07T22:27:42.260Z,2.28
2022-10-07T22:31:24.334Z,2.47
2022-10-07T22:35:25.260Z,2.63
2022-10-07T22:39:07.109Z,2.47
2022-10-07T22:42:49.375Z,2.10
2022-10-07T22:46:31.304Z,2.25
2022-10-07T22:50:13.223Z,2.28
2022-10-07T22:53:56.090Z,2.38
2022-10-07T22:57:37.934Z,2.22
2022-10-07T23:01:20.671Z,1.63
2022-10-07T23:05:02.539Z,2.30
2022-10-07T23:08:45.333Z,2.15
2022-10-07T23:12:27.243Z,2.05
2022-10-07T23:16:12.263Z,2.35
2022-10-07T23:19:54.559Z,1.63
2022-10-07T23:23:38.283Z,2.42
2022-10-07T23:27:20.387Z,1.40
2022-10-07T23:31:10.965Z,1.38
2022-10-07T23:34:52.812Z,2.78
2022-10-07T23:38:35.676Z,1.45
2022-10-07T23:42:17.609Z,1.13
2022-10-07T23:46:00.705Z,1.75
2022-10-07T23:49:42.576Z,2.35
2022-10-07T23:53:24.378Z,1.77
2022-10-07T23:57:06.222Z,1.63
